sensor_id;sensor_type;location;lat;lon;timestamp;temperature;humidity
44863;DHT22;30597;49.628;10.850;2023-11-21T00:00:29;18.10;56.80
44863;DHT22;30597;49.628;10.850;2023-11-21T00:02:55;18.10;56.70
44863;DHT22;30597;49.628;10.850;2023-11-21T00:05:20;18.10;56.80
44863;DHT22;30597;49.628;10.850;2023-11-21T00:07:48;18.20;57.00
44863;DHT22;30597;49.628;10.850;2023-11-21T00:10:14;18.10;56.80
44863;DHT22;30597;49.628;10.850;2023-11-21T00:12:41;18.20;57.00
44863;DHT22;30597;49.628;10.850;2023-11-21T00:15:08;18.10;56.80
44863;DHT22;30597;49.628;10.850;2023-11-21T00:17:37;18.10;56.90
44863;DHT22;30597;49.628;10.850;2023-11-21T00:20:04;18.20;57.00
44863;DHT22;30597;49.628;10.850;2023-11-21T00:22:33;18.10;56.90
44863;DHT22;30597;49.628;10.850;2023-11-21T00:24:58;18.20;57.00
44863;DHT22;30597;49.628;10.850;2023-11-21T00:27:24;18.10;56.80
44863;DHT22;30597;49.628;10.850;2023-11-21T00:29:49;18.10;56.80
44863;DHT22;30597;49.628;10.850;2023-11-21T00:32:15;18.10;56.90
44863;DHT22;30597;49.628;10.850;2023-11-21T00:34:40;18.20;56.80
44863;DHT22;30597;49.628;10.850;2023-11-21T00:37:06;18.10;56.90
44863;DHT22;30597;49.628;10.850;2023-11-21T00:39:33;18.10;56.90
44863;DHT22;30597;49.628;10.850;2023-11-21T00:42:00;18.10;56.80
44863;DHT22;30597;49.628;10.850;2023-11-21T00:44:27;18.20;56.90
44863;DHT22;30597;49.628;10.850;2023-11-21T00:46:52;18.00;56.70
44863;DHT22;30597;49.628;10.850;2023-11-21T00:49:18;18.00;56.70
44863;DHT22;30597;49.628;10.850;2023-11-21T00:51:44;18.20;56.90
44863;DHT22;30597;49.628;10.850;2023-11-21T00:54:09;18.00;56.60
44863;DHT22;30597;49.628;10.850;2023-11-21T00:56:35;18.10;56.50
44863;DHT22;30597;49.628;10.850;2023-11-21T00:59:00;18.10;56.70
44863;DHT22;30597;49.628;10.850;2023-11-21T01:01:27;18.10;56.70
44863;DHT22;30597;49.628;10.850;2023-11-21T01:03:52;18.00;56.70
44863;DHT22;30597;49.628;10.850;2023-11-21T01:06:19;18.00;56.70
44863;DHT22;30597;49.628;10.850;2023-11-21T01:08:45;18.00;57.30
44863;DHT22;30597;49.628;10.850;2023-11-21T01:11:11;18.20;56.90
44863;DHT22;30597;49.628;10.850;2023-11-21T01:13:38;18.00;56.70
44863;DHT22;30597;49.628;10.850;2023-11-21T01:16:05;18.00;56.80
44863;DHT22;30597;49.628;10.850;2023-11-21T01:18:31;18.00;56.70
44863;DHT22;30597;49.628;10.850;2023-11-21T01:20:57;18.00;56.60
44863;DHT22;30597;49.628;10.850;2023-11-21T01:23:23;18.00;56.60
44863;DHT22;30597;49.628;10.850;2023-11-21T01:25:49;18.10;56.60
44863;DHT22;30597;49.628;10.850;2023-11-21T01:28:17;18.10;56.70
44863;DHT22;30597;49.628;10.850;2023-11-21T01:30:42;18.00;56.60
44863;DHT22;30597;49.628;10.850;2023-11-21T01:33:08;17.90;56.50
44863;DHT22;30597;49.628;10.850;2023-11-21T01:35:34;18.00;56.60
44863;DHT22;30597;49.628;10.850;2023-11-21T01:37:59;18.10;56.70
44863;DHT22;30597;49.628;10.850;2023-11-21T01:40:25;18.00;56.50
44863;DHT22;30597;49.628;10.850;2023-11-21T01:42:50;17.90;56.50
44863;DHT22;30597;49.628;10.850;2023-11-21T01:45:18;17.90;56.60
44863;DHT22;30597;49.628;10.850;2023-11-21T01:47:44;17.90;56.60
44863;DHT22;30597;49.628;10.850;2023-11-21T01:50:14;18.00;56.50
44863;DHT22;30597;49.628;10.850;2023-11-21T01:52:42;17.90;56.60
44863;DHT22;30597;49.628;10.850;2023-11-21T01:55:09;18.00;56.60
44863;DHT22;30597;49.628;10.850;2023-11-21T01:57:36;17.90;56.50
44863;DHT22;30597;49.628;10.850;2023-11-21T02:00:05;18.10;56.70
44863;DHT22;30597;49.628;10.850;2023-11-21T02:02:45;17.90;56.40
44863;DHT22;30597;49.628;10.850;2023-11-21T02:05:18;18.00;56.60
44863;DHT22;30597;49.628;10.850;2023-11-21T02:07:44;17.90;56.50
44863;DHT22;30597;49.628;10.850;2023-11-21T02:10:10;17.90;56.50
44863;DHT22;30597;49.628;10.850;2023-11-21T02:12:40;17.90;56.30
44863;DHT22;30597;49.628;10.850;2023-11-21T02:15:06;17.90;56.50
44863;DHT22;30597;49.628;10.850;2023-11-21T02:17:41;17.90;56.40
44863;DHT22;30597;49.628;10.850;2023-11-21T02:20:10;18.00;56.60
44863;DHT22;30597;49.628;10.850;2023-11-21T02:22:41;17.90;56.50
44863;DHT22;30597;49.628;10.850;2023-11-21T02:25:07;18.00;56.60
44863;DHT22;30597;49.628;10.850;2023-11-21T02:27:36;17.90;56.50
44863;DHT22;30597;49.628;10.850;2023-11-21T02:30:03;18.00;56.50
44863;DHT22;30597;49.628;10.850;2023-11-21T02:32:30;17.90;56.50
44863;DHT22;30597;49.628;10.850;2023-11-21T02:34:57;17.90;56.40
44863;DHT22;30597;49.628;10.850;2023-11-21T02:37:26;17.90;56.50
44863;DHT22;30597;49.628;10.850;2023-11-21T02:39:52;17.90;56.50
44863;DHT22;30597;49.628;10.850;2023-11-21T02:42:18;17.90;56.40
44863;DHT22;30597;49.628;10.850;2023-11-21T02:44:44;18.00;56.50
44863;DHT22;30597;49.628;10.850;2023-11-21T02:47:09;17.90;56.50
44863;DHT22;30597;49.628;10.850;2023-11-21T02:49:35;17.90;56.40
44863;DHT22;30597;49.628;10.850;2023-11-21T02:52:01;17.90;56.40
44863;DHT22;30597;49.628;10.850;2023-11-21T02:54:28;17.90;56.60
44863;DHT22;30597;49.628;10.850;2023-11-21T02:56:54;17.90;56.50
44863;DHT22;30597;49.628;10.850;2023-11-21T02:59:19;17.90;56.50
44863;DHT22;30597;49.628;10.850;2023-11-21T03:01:45;17.90;56.50
44863;DHT22;30597;49.628;10.850;2023-11-21T03:04:12;17.90;56.50
44863;DHT22;30597;49.628;10.850;2023-11-21T03:06:43;17.90;56.60
44863;DHT22;30597;49.628;10.850;2023-11-21T03:09:09;17.80;56.60
44863;DHT22;30597;49.628;10.850;2023-11-21T03:11:35;17.90;56.50
44863;DHT22;30597;49.628;10.850;2023-11-21T03:14:00;17.90;56.50
44863;DHT22;30597;49.628;10.850;2023-11-21T03:16:26;17.80;56.40
44863;DHT22;30597;49.628;10.850;2023-11-21T03:18:52;17.80;56.40
44863;DHT22;30597;49.628;10.850;2023-11-21T03:21:17;17.80;56.50
44863;DHT22;30597;49.628;10.850;2023-11-21T03:23:43;17.80;56.50
44863;DHT22;30597;49.628;10.850;2023-11-21T03:26:12;17.80;56.50
44863;DHT22;30597;49.628;10.850;2023-11-21T03:28:38;17.90;56.70
44863;DHT22;30597;49.628;10.850;2023-11-21T03:31:04;18.10;56.60
44863;DHT22;30597;49.628;10.850;2023-11-21T03:33:29;18.10;56.30
44863;DHT22;30597;49.628;10.850;2023-11-21T03:35:55;18.10;56.30
44863;DHT22;30597;49.628;10.850;2023-11-21T03:38:20;18.30;56.30
44863;DHT22;30597;49.628;10.850;2023-11-21T03:40:46;18.30;56.10
44863;DHT22;30597;49.628;10.850;2023-11-21T03:43:13;18.50;56.10
44863;DHT22;30597;49.628;10.850;2023-11-21T03:45:38;18.60;56.00
44863;DHT22;30597;49.628;10.850;2023-11-21T03:48:06;18.60;55.70
44863;DHT22;30597;49.628;10.850;2023-11-21T03:50:32;18.70;55.70
44863;DHT22;30597;49.628;10.850;2023-11-21T03:52:57;18.80;55.40
44863;DHT22;30597;49.628;10.850;2023-11-21T03:55:23;18.80;55.30
44863;DHT22;30597;49.628;10.850;2023-11-21T03:57:50;18.90;55.40
44863;DHT22;30597;49.628;10.850;2023-11-21T04:00:17;19.00;55.40
44863;DHT22;30597;49.628;10.850;2023-11-21T04:02:42;19.00;55.20
44863;DHT22;30597;49.628;10.850;2023-11-21T04:05:08;19.10;55.30
44863;DHT22;30597;49.628;10.850;2023-11-21T04:07:35;19.10;55.20
44863;DHT22;30597;49.628;10.850;2023-11-21T04:10:02;19.20;55.10
44863;DHT22;30597;49.628;10.850;2023-11-21T04:12:28;19.30;55.00
44863;DHT22;30597;49.628;10.850;2023-11-21T04:14:53;19.30;55.00
44863;DHT22;30597;49.628;10.850;2023-11-21T04:17:19;19.40;55.00
44863;DHT22;30597;49.628;10.850;2023-11-21T04:19:45;19.30;54.80
44863;DHT22;30597;49.628;10.850;2023-11-21T04:22:11;19.40;54.90
44863;DHT22;30597;49.628;10.850;2023-11-21T04:24:38;19.50;55.00
44863;DHT22;30597;49.628;10.850;2023-11-21T04:27:03;19.30;54.70
44863;DHT22;30597;49.628;10.850;2023-11-21T04:29:29;19.30;54.70
44863;DHT22;30597;49.628;10.850;2023-11-21T04:31:55;19.40;54.90
44863;DHT22;30597;49.628;10.850;2023-11-21T04:34:22;19.30;54.90
44863;DHT22;30597;49.628;10.850;2023-11-21T04:36:47;19.30;55.10
44863;DHT22;30597;49.628;10.850;2023-11-21T04:39:13;19.20;55.10
44863;DHT22;30597;49.628;10.850;2023-11-21T04:41:38;19.10;55.10
44863;DHT22;30597;49.628;10.850;2023-11-21T04:44:08;19.10;55.30
44863;DHT22;30597;49.628;10.850;2023-11-21T04:46:33;19.10;55.30
44863;DHT22;30597;49.628;10.850;2023-11-21T04:48:59;19.00;55.40
44863;DHT22;30597;49.628;10.850;2023-11-21T04:51:25;18.90;55.40
44863;DHT22;30597;49.628;10.850;2023-11-21T04:53:50;18.90;55.50
44863;DHT22;30597;49.628;10.850;2023-11-21T04:56:16;19.00;55.70
44863;DHT22;30597;49.628;10.850;2023-11-21T04:58:42;18.80;55.60
44863;DHT22;30597;49.628;10.850;2023-11-21T05:01:08;18.80;55.70
44863;DHT22;30597;49.628;10.850;2023-11-21T05:03:33;18.80;55.80
44863;DHT22;30597;49.628;10.850;2023-11-21T05:06:02;18.70;55.80
44863;DHT22;30597;49.628;10.850;2023-11-21T05:08:30;18.70;55.90
44863;DHT22;30597;49.628;10.850;2023-11-21T05:10:56;18.70;55.90
44863;DHT22;30597;49.628;10.850;2023-11-21T05:13:22;18.60;55.90
44863;DHT22;30597;49.628;10.850;2023-11-21T05:15:54;18.70;56.10
44863;DHT22;30597;49.628;10.850;2023-11-21T05:18:19;18.60;56.70
44863;DHT22;30597;49.628;10.850;2023-11-21T05:20:45;18.60;56.00
44863;DHT22;30597;49.628;10.850;2023-11-21T05:23:10;18.60;56.00
44863;DHT22;30597;49.628;10.850;2023-11-21T05:25:36;18.60;56.10
44863;DHT22;30597;49.628;10.850;2023-11-21T05:28:01;18.60;56.20
44863;DHT22;30597;49.628;10.850;2023-11-21T05:30:28;18.60;56.20
44863;DHT22;30597;49.628;10.850;2023-11-21T05:32:53;18.60;56.20
44863;DHT22;30597;49.628;10.850;2023-11-21T05:35:19;18.70;56.30
44863;DHT22;30597;49.628;10.850;2023-11-21T05:37:45;18.50;56.10
44863;DHT22;30597;49.628;10.850;2023-11-21T05:40:11;18.50;56.10
44863;DHT22;30597;49.628;10.850;2023-11-21T05:42:39;18.50;56.10
44863;DHT22;30597;49.628;10.850;2023-11-21T05:45:06;18.50;56.30
44863;DHT22;30597;49.628;10.850;2023-11-21T05:47:37;18.50;56.20
44863;DHT22;30597;49.628;10.850;2023-11-21T05:50:04;18.50;56.30
44863;DHT22;30597;49.628;10.850;2023-11-21T05:52:31;18.50;56.20
44863;DHT22;30597;49.628;10.850;2023-11-21T05:54:58;18.40;56.20
44863;DHT22;30597;49.628;10.850;2023-11-21T05:57:23;18.40;56.10
44863;DHT22;30597;49.628;10.850;2023-11-21T05:59:49;18.50;56.30
44863;DHT22;30597;49.628;10.850;2023-11-21T06:02:14;18.50;56.30
44863;DHT22;30597;49.628;10.850;2023-11-21T06:04:40;18.40;56.20
44863;DHT22;30597;49.628;10.850;2023-11-21T06:07:05;18.40;56.20
44863;DHT22;30597;49.628;10.850;2023-11-21T06:09:32;18.40;56.30
44863;DHT22;30597;49.628;10.850;2023-11-21T06:11:58;18.50;56.40
44863;DHT22;30597;49.628;10.850;2023-11-21T06:14:24;18.60;56.30
44863;DHT22;30597;49.628;10.850;2023-11-21T06:16:49;18.70;56.10
44863;DHT22;30597;49.628;10.850;2023-11-21T06:19:16;19.00;56.10
44863;DHT22;30597;49.628;10.850;2023-11-21T06:21:45;19.10;55.90
44863;DHT22;30597;49.628;10.850;2023-11-21T06:24:12;19.10;55.70
44863;DHT22;30597;49.628;10.850;2023-11-21T06:26:38;19.30;55.60
44863;DHT22;30597;49.628;10.850;2023-11-21T06:29:03;19.30;55.50
44863;DHT22;30597;49.628;10.850;2023-11-21T06:31:29;19.30;55.30
44863;DHT22;30597;49.628;10.850;2023-11-21T06:33:55;19.30;55.10
44863;DHT22;30597;49.628;10.850;2023-11-21T06:36:21;19.40;55.10
44863;DHT22;30597;49.628;10.850;2023-11-21T06:38:46;19.40;55.10
44863;DHT22;30597;49.628;10.850;2023-11-21T06:41:12;19.30;55.00
44863;DHT22;30597;49.628;10.850;2023-11-21T06:43:41;19.40;55.10
44863;DHT22;30597;49.628;10.850;2023-11-21T06:46:06;19.30;55.00
44863;DHT22;30597;49.628;10.850;2023-11-21T06:48:32;19.40;55.30
44863;DHT22;30597;49.628;10.850;2023-11-21T06:50:57;19.40;55.30
44863;DHT22;30597;49.628;10.850;2023-11-21T06:53:23;19.30;55.30
44863;DHT22;30597;49.628;10.850;2023-11-21T06:55:48;19.20;55.30
44863;DHT22;30597;49.628;10.850;2023-11-21T06:58:14;19.30;55.50
44863;DHT22;30597;49.628;10.850;2023-11-21T07:00:40;19.10;55.40
44863;DHT22;30597;49.628;10.850;2023-11-21T07:03:05;19.10;55.50
44863;DHT22;30597;49.628;10.850;2023-11-21T07:05:31;19.00;55.60
44863;DHT22;30597;49.628;10.850;2023-11-21T07:07:56;19.00;55.70
44863;DHT22;30597;49.628;10.850;2023-11-21T07:10:22;19.00;55.80
44863;DHT22;30597;49.628;10.850;2023-11-21T07:12:48;18.90;55.70
44863;DHT22;30597;49.628;10.850;2023-11-21T07:15:13;18.90;55.80
44863;DHT22;30597;49.628;10.850;2023-11-21T07:17:39;18.90;55.90
44863;DHT22;30597;49.628;10.850;2023-11-21T07:20:05;18.80;56.00
44863;DHT22;30597;49.628;10.850;2023-11-21T07:22:32;18.80;55.90
44863;DHT22;30597;49.628;10.850;2023-11-21T07:24:58;18.80;55.90
44863;DHT22;30597;49.628;10.850;2023-11-21T07:27:23;18.70;55.90
44863;DHT22;30597;49.628;10.850;2023-11-21T07:29:49;18.70;56.60
44863;DHT22;30597;49.628;10.850;2023-11-21T07:32:16;18.70;56.00
44863;DHT22;30597;49.628;10.850;2023-11-21T07:34:42;18.80;56.00
44863;DHT22;30597;49.628;10.850;2023-11-21T07:37:08;18.80;56.10
44863;DHT22;30597;49.628;10.850;2023-11-21T07:39:35;18.70;56.00
44863;DHT22;30597;49.628;10.850;2023-11-21T07:42:01;18.70;56.10
44863;DHT22;30597;49.628;10.850;2023-11-21T07:44:28;18.70;56.10
44863;DHT22;30597;49.628;10.850;2023-11-21T07:46:55;18.60;56.00
44863;DHT22;30597;49.628;10.850;2023-11-21T07:49:24;18.60;56.00
44863;DHT22;30597;49.628;10.850;2023-11-21T07:51:50;18.70;55.90
44863;DHT22;30597;49.628;10.850;2023-11-21T07:54:16;18.70;55.90
44863;DHT22;30597;49.628;10.850;2023-11-21T07:56:41;18.70;55.90
44863;DHT22;30597;49.628;10.850;2023-11-21T07:59:07;18.70;55.90
44863;DHT22;30597;49.628;10.850;2023-11-21T08:01:33;18.60;55.80
44863;DHT22;30597;49.628;10.850;2023-11-21T08:03:59;18.60;55.80
44863;DHT22;30597;49.628;10.850;2023-11-21T08:06:31;18.60;55.80
44863;DHT22;30597;49.628;10.850;2023-11-21T08:08:58;18.60;55.90
44863;DHT22;30597;49.628;10.850;2023-11-21T08:11:23;18.60;55.70
44863;DHT22;30597;49.628;10.850;2023-11-21T08:13:49;18.60;55.80
44863;DHT22;30597;49.628;10.850;2023-11-21T08:16:14;18.70;55.90
44863;DHT22;30597;49.628;10.850;2023-11-21T08:18:41;18.60;55.90
44863;DHT22;30597;49.628;10.850;2023-11-21T08:21:07;18.70;56.00
44863;DHT22;30597;49.628;10.850;2023-11-21T08:23:33;18.60;56.00
44863;DHT22;30597;49.628;10.850;2023-11-21T08:26:00;18.50;56.00
44863;DHT22;30597;49.628;10.850;2023-11-21T08:28:25;18.50;55.90
44863;DHT22;30597;49.628;10.850;2023-11-21T08:30:52;18.50;55.90
44863;DHT22;30597;49.628;10.850;2023-11-21T08:33:18;18.60;56.10
44863;DHT22;30597;49.628;10.850;2023-11-21T08:35:44;18.70;56.00
44863;DHT22;30597;49.628;10.850;2023-11-21T08:38:11;18.80;56.00
44863;DHT22;30597;49.628;10.850;2023-11-21T08:40:37;18.90;55.80
44863;DHT22;30597;49.628;10.850;2023-11-21T08:43:03;19.00;55.60
44863;DHT22;30597;49.628;10.850;2023-11-21T08:45:30;19.30;55.60
44863;DHT22;30597;49.628;10.850;2023-11-21T08:47:56;19.20;55.30
44863;DHT22;30597;49.628;10.850;2023-11-21T08:50:22;19.30;55.10
44863;DHT22;30597;49.628;10.850;2023-11-21T08:52:48;19.40;55.10
44863;DHT22;30597;49.628;10.850;2023-11-21T08:55:14;19.40;54.90
44863;DHT22;30597;49.628;10.850;2023-11-21T08:57:44;19.50;54.90
44863;DHT22;30597;49.628;10.850;2023-11-21T09:00:10;19.50;54.90
44863;DHT22;30597;49.628;10.850;2023-11-21T09:02:38;19.50;54.70
44863;DHT22;30597;49.628;10.850;2023-11-21T09:05:05;19.60;54.80
44863;DHT22;30597;49.628;10.850;2023-11-21T09:07:32;19.50;54.60
44863;DHT22;30597;49.628;10.850;2023-11-21T09:09:58;19.40;54.70
44863;DHT22;30597;49.628;10.850;2023-11-21T09:12:25;19.40;54.80
44863;DHT22;30597;49.628;10.850;2023-11-21T09:14:51;19.40;54.90
44863;DHT22;30597;49.628;10.850;2023-11-21T09:17:16;19.40;55.40
44863;DHT22;30597;49.628;10.850;2023-11-21T09:19:42;19.40;54.90
44863;DHT22;30597;49.628;10.850;2023-11-21T09:22:15;19.40;55.00
44863;DHT22;30597;49.628;10.850;2023-11-21T09:24:41;19.20;55.00
44863;DHT22;30597;49.628;10.850;2023-11-21T09:27:07;19.20;55.00
44863;DHT22;30597;49.628;10.850;2023-11-21T09:29:33;19.20;55.10
44863;DHT22;30597;49.628;10.850;2023-11-21T09:31:59;19.10;55.00
44863;DHT22;30597;49.628;10.850;2023-11-21T09:34:25;19.10;55.10
44863;DHT22;30597;49.628;10.850;2023-11-21T09:36:51;19.10;55.30
44863;DHT22;30597;49.628;10.850;2023-11-21T09:39:17;19.10;55.20
44863;DHT22;30597;49.628;10.850;2023-11-21T09:41:50;19.00;55.30
44863;DHT22;30597;49.628;10.850;2023-11-21T09:44:31;19.00;55.40
44863;DHT22;30597;49.628;10.850;2023-11-21T09:46:59;19.00;55.40
44863;DHT22;30597;49.628;10.850;2023-11-21T09:49:27;19.10;55.40
44863;DHT22;30597;49.628;10.850;2023-11-21T09:51:55;19.00;55.50
44863;DHT22;30597;49.628;10.850;2023-11-21T09:54:24;18.90;55.30
44863;DHT22;30597;49.628;10.850;2023-11-21T09:56:50;18.90;55.50
44863;DHT22;30597;49.628;10.850;2023-11-21T09:59:16;18.90;55.30
44863;DHT22;30597;49.628;10.850;2023-11-21T10:01:42;18.90;55.30
44863;DHT22;30597;49.628;10.850;2023-11-21T10:04:11;19.10;55.50
44863;DHT22;30597;49.628;10.850;2023-11-21T10:06:39;18.90;55.40
44863;DHT22;30597;49.628;10.850;2023-11-21T10:09:09;18.90;55.50
44863;DHT22;30597;49.628;10.850;2023-11-21T10:11:43;18.90;55.50
44863;DHT22;30597;49.628;10.850;2023-11-21T10:14:12;18.90;55.50
44863;DHT22;30597;49.628;10.850;2023-11-21T10:16:40;18.90;55.40
44863;DHT22;30597;49.628;10.850;2023-11-21T10:19:10;18.90;55.50
44863;DHT22;30597;49.628;10.850;2023-11-21T10:21:36;19.00;55.60
44863;DHT22;30597;49.628;10.850;2023-11-21T10:24:03;18.90;55.50
44863;DHT22;30597;49.628;10.850;2023-11-21T10:26:29;18.90;55.40
44863;DHT22;30597;49.628;10.850;2023-11-21T10:29:01;18.90;55.50
44863;DHT22;30597;49.628;10.850;2023-11-21T10:31:31;18.80;55.50
44863;DHT22;30597;49.628;10.850;2023-11-21T10:34:12;18.80;55.50
44863;DHT22;30597;49.628;10.850;2023-11-21T10:36:38;18.80;55.60
44863;DHT22;30597;49.628;10.850;2023-11-21T10:39:03;18.80;55.60
44863;DHT22;30597;49.628;10.850;2023-11-21T10:41:29;18.70;55.50
44863;DHT22;30597;49.628;10.850;2023-11-21T10:43:55;18.90;55.60
44863;DHT22;30597;49.628;10.850;2023-11-21T10:46:21;18.80;55.60
44863;DHT22;30597;49.628;10.850;2023-11-21T10:48:57;18.70;56.30
44863;DHT22;30597;49.628;10.850;2023-11-21T10:51:23;18.60;55.70
44863;DHT22;30597;49.628;10.850;2023-11-21T10:53:52;18.60;55.70
44863;DHT22;30597;49.628;10.850;2023-11-21T10:56:18;18.60;55.70
44863;DHT22;30597;49.628;10.850;2023-11-21T10:58:50;18.70;55.90
44863;DHT22;30597;49.628;10.850;2023-11-21T11:01:19;18.70;56.00
44863;DHT22;30597;49.628;10.850;2023-11-21T11:03:47;18.70;55.90
44863;DHT22;30597;49.628;10.850;2023-11-21T11:06:13;18.90;55.90
44863;DHT22;30597;49.628;10.850;2023-11-21T11:08:40;19.00;55.80
44863;DHT22;30597;49.628;10.850;2023-11-21T11:11:07;19.10;55.40
44863;DHT22;30597;49.628;10.850;2023-11-21T11:13:32;19.20;55.30
44863;DHT22;30597;49.628;10.850;2023-11-21T11:15:59;19.40;55.30
44863;DHT22;30597;49.628;10.850;2023-11-21T11:18:29;19.40;55.10
44863;DHT22;30597;49.628;10.850;2023-11-21T11:21:07;19.60;55.00
44863;DHT22;30597;49.628;10.850;2023-11-21T11:34:57;19.60;54.60
44863;DHT22;30597;49.628;10.850;2023-11-21T11:37:28;19.70;54.70
44863;DHT22;30597;49.628;10.850;2023-11-21T11:39:54;19.60;54.80
44863;DHT22;30597;49.628;10.850;2023-11-21T11:42:21;19.50;54.70
44863;DHT22;30597;49.628;10.850;2023-11-21T11:44:48;19.50;54.80
44863;DHT22;30597;49.628;10.850;2023-11-21T11:47:23;19.50;54.90
44863;DHT22;30597;49.628;10.850;2023-11-21T11:52:46;19.40;55.10
44863;DHT22;30597;49.628;10.850;2023-11-21T11:55:16;19.30;55.10
44863;DHT22;30597;49.628;10.850;2023-11-21T11:57:47;19.30;55.20
44863;DHT22;30597;49.628;10.850;2023-11-21T12:00:14;19.30;55.30
44863;DHT22;30597;49.628;10.850;2023-11-21T12:02:42;19.20;55.30
44863;DHT22;30597;49.628;10.850;2023-11-21T12:05:15;19.10;55.90
44863;DHT22;30597;49.628;10.850;2023-11-21T12:08:07;19.10;55.40
44863;DHT22;30597;49.628;10.850;2023-11-21T12:10:35;19.10;55.30
44863;DHT22;30597;49.628;10.850;2023-11-21T12:13:03;19.10;55.50
44863;DHT22;30597;49.628;10.850;2023-11-21T12:15:30;19.10;55.50
44863;DHT22;30597;49.628;10.850;2023-11-21T12:17:57;19.00;55.50
44863;DHT22;30597;49.628;10.850;2023-11-21T12:20:25;19.10;55.70
44863;DHT22;30597;49.628;10.850;2023-11-21T12:22:52;19.00;55.70
44863;DHT22;30597;49.628;10.850;2023-11-21T12:25:23;19.00;55.70
44863;DHT22;30597;49.628;10.850;2023-11-21T12:27:51;19.00;55.70
44863;DHT22;30597;49.628;10.850;2023-11-21T12:30:19;18.90;55.60
44863;DHT22;30597;49.628;10.850;2023-11-21T12:32:48;19.00;55.70
44863;DHT22;30597;49.628;10.850;2023-11-21T12:35:14;19.10;55.80
44863;DHT22;30597;49.628;10.850;2023-11-21T12:37:41;18.90;55.50
44863;DHT22;30597;49.628;10.850;2023-11-21T12:40:10;18.90;55.50
44863;DHT22;30597;49.628;10.850;2023-11-21T12:42:47;18.90;55.50
44863;DHT22;30597;49.628;10.850;2023-11-21T12:48:09;18.90;55.50
44863;DHT22;30597;49.628;10.850;2023-11-21T12:50:37;18.80;55.60
44863;DHT22;30597;49.628;10.850;2023-11-21T12:53:05;18.80;55.70
44863;DHT22;30597;49.628;10.850;2023-11-21T12:55:32;18.90;55.80
44863;DHT22;30597;49.628;10.850;2023-11-21T12:58:01;18.80;55.80
44863;DHT22;30597;49.628;10.850;2023-11-21T13:00:39;18.80;55.90
44863;DHT22;30597;49.628;10.850;2023-11-21T13:03:09;18.80;55.80
44863;DHT22;30597;49.628;10.850;2023-11-21T13:05:37;18.70;55.80
44863;DHT22;30597;49.628;10.850;2023-11-21T13:08:10;18.70;55.70
44863;DHT22;30597;49.628;10.850;2023-11-21T13:10:43;18.70;55.80
44863;DHT22;30597;49.628;10.850;2023-11-21T13:13:11;18.70;55.90
44863;DHT22;30597;49.628;10.850;2023-11-21T13:18:27;18.70;55.90
44863;DHT22;30597;49.628;10.850;2023-11-21T13:20:57;18.80;56.00
44863;DHT22;30597;49.628;10.850;2023-11-21T13:23:23;18.70;55.90
44863;DHT22;30597;49.628;10.850;2023-11-21T13:25:49;18.60;55.80
44863;DHT22;30597;49.628;10.850;2023-11-21T13:28:15;18.60;55.80
44863;DHT22;30597;49.628;10.850;2023-11-21T13:30:43;18.70;55.80
44863;DHT22;30597;49.628;10.850;2023-11-21T13:33:10;18.80;55.90
44863;DHT22;30597;49.628;10.850;2023-11-21T13:35:38;18.70;55.90
44863;DHT22;30597;49.628;10.850;2023-11-21T13:38:10;18.70;55.90
44863;DHT22;30597;49.628;10.850;2023-11-21T13:40:36;18.80;55.90
44863;DHT22;30597;49.628;10.850;2023-11-21T13:43:10;19.10;55.90
44863;DHT22;30597;49.628;10.850;2023-11-21T13:45:37;19.10;55.60
44863;DHT22;30597;49.628;10.850;2023-11-21T13:48:05;19.30;55.50
44863;DHT22;30597;49.628;10.850;2023-11-21T13:50:48;19.40;55.30
44863;DHT22;30597;49.628;10.850;2023-11-21T13:53:21;19.40;55.10
44863;DHT22;30597;49.628;10.850;2023-11-21T13:55:53;19.50;55.00
44863;DHT22;30597;49.628;10.850;2023-11-21T13:58:20;19.70;55.00
44863;DHT22;30597;49.628;10.850;2023-11-21T14:01:00;19.60;54.80
44863;DHT22;30597;49.628;10.850;2023-11-21T14:03:27;19.60;54.70
44863;DHT22;30597;49.628;10.850;2023-11-21T14:06:16;19.60;54.70
44863;DHT22;30597;49.628;10.850;2023-11-21T14:08:49;19.60;54.70
44863;DHT22;30597;49.628;10.850;2023-11-21T14:11:15;19.60;54.90
44863;DHT22;30597;49.628;10.850;2023-11-21T14:13:44;19.60;54.80
44863;DHT22;30597;49.628;10.850;2023-11-21T14:16:13;19.70;55.00
44863;DHT22;30597;49.628;10.850;2023-11-21T14:18:39;19.60;54.90
44863;DHT22;30597;49.628;10.850;2023-11-21T14:21:20;19.50;54.90
44863;DHT22;30597;49.628;10.850;2023-11-21T14:23:47;19.50;55.00
44863;DHT22;30597;49.628;10.850;2023-11-21T14:26:13;19.40;55.00
44863;DHT22;30597;49.628;10.850;2023-11-21T14:28:40;19.40;55.10
44863;DHT22;30597;49.628;10.850;2023-11-21T14:31:07;19.30;55.20
44863;DHT22;30597;49.628;10.850;2023-11-21T14:33:33;19.40;55.40
44863;DHT22;30597;49.628;10.850;2023-11-21T14:35:58;19.30;55.30
44863;DHT22;30597;49.628;10.850;2023-11-21T14:38:24;19.20;55.30
44863;DHT22;30597;49.628;10.850;2023-11-21T14:40:50;19.20;55.40
44863;DHT22;30597;49.628;10.850;2023-11-21T14:43:15;19.20;55.50
44863;DHT22;30597;49.628;10.850;2023-11-21T14:45:42;19.10;55.50
44863;DHT22;30597;49.628;10.850;2023-11-21T14:48:07;19.10;55.50
44863;DHT22;30597;49.628;10.850;2023-11-21T14:50:41;19.10;55.60
44863;DHT22;30597;49.628;10.850;2023-11-21T14:53:11;19.20;55.90
44863;DHT22;30597;49.628;10.850;2023-11-21T14:55:39;19.00;55.70
44863;DHT22;30597;49.628;10.850;2023-11-21T14:58:17;19.00;55.80
44863;DHT22;30597;49.628;10.850;2023-11-21T15:00:53;19.10;55.90
44863;DHT22;30597;49.628;10.850;2023-11-21T15:03:23;19.00;55.90
44863;DHT22;30597;49.628;10.850;2023-11-21T15:06:02;18.90;55.90
44863;DHT22;30597;49.628;10.850;2023-11-21T15:08:44;18.90;55.90
44863;DHT22;30597;49.628;10.850;2023-11-21T15:11:13;18.90;55.90
44863;DHT22;30597;49.628;10.850;2023-11-21T15:13:42;19.00;55.90
44863;DHT22;30597;49.628;10.850;2023-11-21T15:16:08;18.90;55.80
44863;DHT22;30597;49.628;10.850;2023-11-21T15:18:37;18.90;55.80
44863;DHT22;30597;49.628;10.850;2023-11-21T15:21:05;18.90;55.90
44863;DHT22;30597;49.628;10.850;2023-11-21T15:23:34;18.80;56.50
44863;DHT22;30597;49.628;10.850;2023-11-21T15:26:00;18.90;55.90
44863;DHT22;30597;49.628;10.850;2023-11-21T15:28:27;18.90;55.90
44863;DHT22;30597;49.628;10.850;2023-11-21T15:30:54;18.80;55.70
44863;DHT22;30597;49.628;10.850;2023-11-21T15:33:19;18.80;55.70
44863;DHT22;30597;49.628;10.850;2023-11-21T15:35:45;18.80;55.90